Melbeta, Nebraska
Current Conditions -  °F | °C
As of 6:53 AM on Friday 28 Nov 2014 (Local Time) from KBFF Reporting Station
Clear Clear  
Wind Chill: 55°   Ceiling: Unl
Heat Index: 55°   Visibility: 10mi
Dew Point: 22°   Wind: 22mph
Humidity: 28%   Direction: 260°W
Pressure: 29.81"   Gusts: 29mph
Location:  41.78°N, 103.52°W
Report Text: KBFF 281353Z AUTO 26019G25KT 10SM CLR 13/M06 A2981 RMK AO2 SLP085 T01281056
Loading
Personal Weather Stations






























Interactive Weather Map New forecast layout! Learn more

10-Day Weather Forecast

Advertisements
Track Severe Weather on mobile